sensor_id;sensor_type;location;lat;lon;timestamp;temperature;humidity
37285;DHT22;23172;53.550;9.964;2023-07-13T00:03:00;21.10;80.90
37285;DHT22;23172;53.550;9.964;2023-07-13T00:08:02;21.10;80.80
37285;DHT22;23172;53.550;9.964;2023-07-13T00:13:06;21.10;81.30
37285;DHT22;23172;53.550;9.964;2023-07-13T00:18:08;21.10;82.00
37285;DHT22;23172;53.550;9.964;2023-07-13T00:23:09;20.90;82.80
37285;DHT22;23172;53.550;9.964;2023-07-13T00:28:13;20.90;83.60
37285;DHT22;23172;53.550;9.964;2023-07-13T00:33:15;20.90;84.50
37285;DHT22;23172;53.550;9.964;2023-07-13T00:38:16;20.80;85.50
37285;DHT22;23172;53.550;9.964;2023-07-13T00:43:21;20.70;86.80
37285;DHT22;23172;53.550;9.964;2023-07-13T00:48:26;20.60;88.80
37285;DHT22;23172;53.550;9.964;2023-07-13T00:53:31;20.60;89.80
37285;DHT22;23172;53.550;9.964;2023-07-13T00:58:35;20.50;90.30
37285;DHT22;23172;53.550;9.964;2023-07-13T01:03:37;20.60;90.40
37285;DHT22;23172;53.550;9.964;2023-07-13T01:08:40;20.60;90.50
37285;DHT22;23172;53.550;9.964;2023-07-13T01:13:44;20.60;90.90
37285;DHT22;23172;53.550;9.964;2023-07-13T01:18:46;20.50;91.20
37285;DHT22;23172;53.550;9.964;2023-07-13T01:23:49;20.50;91.40
37285;DHT22;23172;53.550;9.964;2023-07-13T01:28:51;20.50;92.00
37285;DHT22;23172;53.550;9.964;2023-07-13T01:33:53;20.50;91.80
37285;DHT22;23172;53.550;9.964;2023-07-13T01:38:56;20.30;92.00
37285;DHT22;23172;53.550;9.964;2023-07-13T01:43:58;20.40;92.00
37285;DHT22;23172;53.550;9.964;2023-07-13T01:49:00;20.30;91.90
37285;DHT22;23172;53.550;9.964;2023-07-13T01:54:04;20.30;91.80
37285;DHT22;23172;53.550;9.964;2023-07-13T01:59:06;20.30;91.70
37285;DHT22;23172;53.550;9.964;2023-07-13T02:04:08;20.30;91.80
37285;DHT22;23172;53.550;9.964;2023-07-13T02:09:12;20.30;91.90
37285;DHT22;23172;53.550;9.964;2023-07-13T02:14:14;20.20;92.00
37285;DHT22;23172;53.550;9.964;2023-07-13T02:19:17;20.20;92.00
37285;DHT22;23172;53.550;9.964;2023-07-13T02:24:20;20.10;92.20
37285;DHT22;23172;53.550;9.964;2023-07-13T02:29:22;20.10;92.10
37285;DHT22;23172;53.550;9.964;2023-07-13T02:34:24;20.10;92.00
37285;DHT22;23172;53.550;9.964;2023-07-13T02:39:28;20.10;91.80
37285;DHT22;23172;53.550;9.964;2023-07-13T02:44:33;20.10;91.70
37285;DHT22;23172;53.550;9.964;2023-07-13T02:49:35;20.00;91.60
37285;DHT22;23172;53.550;9.964;2023-07-13T02:54:38;20.00;91.70
37285;DHT22;23172;53.550;9.964;2023-07-13T02:59:40;20.00;91.50
37285;DHT22;23172;53.550;9.964;2023-07-13T03:04:42;20.00;91.30
37285;DHT22;23172;53.550;9.964;2023-07-13T03:09:45;20.00;91.10
37285;DHT22;23172;53.550;9.964;2023-07-13T03:14:47;20.00;90.80
37285;DHT22;23172;53.550;9.964;2023-07-13T03:19:49;20.00;90.70
37285;DHT22;23172;53.550;9.964;2023-07-13T03:24:54;19.90;90.50
37285;DHT22;23172;53.550;9.964;2023-07-13T03:29:56;19.80;90.60
37285;DHT22;23172;53.550;9.964;2023-07-13T03:34:58;19.80;90.50
37285;DHT22;23172;53.550;9.964;2023-07-13T03:40:01;19.80;90.50
37285;DHT22;23172;53.550;9.964;2023-07-13T03:45:04;19.80;90.60
37285;DHT22;23172;53.550;9.964;2023-07-13T03:50:07;19.70;90.30
37285;DHT22;23172;53.550;9.964;2023-07-13T03:55:10;19.70;90.10
37285;DHT22;23172;53.550;9.964;2023-07-13T04:00:14;19.70;89.70
37285;DHT22;23172;53.550;9.964;2023-07-13T04:05:16;19.70;89.00
37285;DHT22;23172;53.550;9.964;2023-07-13T04:10:20;19.70;88.70
37285;DHT22;23172;53.550;9.964;2023-07-13T04:15:22;19.70;88.40
37285;DHT22;23172;53.550;9.964;2023-07-13T04:20:24;19.60;88.60
37285;DHT22;23172;53.550;9.964;2023-07-13T04:25:28;19.60;88.70
37285;DHT22;23172;53.550;9.964;2023-07-13T04:30:30;19.60;89.00
37285;DHT22;23172;53.550;9.964;2023-07-13T04:35:32;19.50;89.10
37285;DHT22;23172;53.550;9.964;2023-07-13T04:40:35;19.40;89.60
37285;DHT22;23172;53.550;9.964;2023-07-13T04:45:37;19.50;89.60
37285;DHT22;23172;53.550;9.964;2023-07-13T04:50:39;19.60;89.10
37285;DHT22;23172;53.550;9.964;2023-07-13T04:55:42;19.60;89.10
37285;DHT22;23172;53.550;9.964;2023-07-13T05:00:44;19.60;89.10
37285;DHT22;23172;53.550;9.964;2023-07-13T05:05:55;19.60;89.20
37285;DHT22;23172;53.550;9.964;2023-07-13T05:10:59;19.60;89.40
37285;DHT22;23172;53.550;9.964;2023-07-13T05:16:03;19.70;89.30
37285;DHT22;23172;53.550;9.964;2023-07-13T05:21:07;19.80;89.00
37285;DHT22;23172;53.550;9.964;2023-07-13T05:26:11;19.90;88.40
37285;DHT22;23172;53.550;9.964;2023-07-13T05:31:13;20.00;88.40
37285;DHT22;23172;53.550;9.964;2023-07-13T05:36:15;20.10;88.40
37285;DHT22;23172;53.550;9.964;2023-07-13T05:41:18;20.10;88.30
37285;DHT22;23172;53.550;9.964;2023-07-13T05:46:20;20.10;88.80
37285;DHT22;23172;53.550;9.964;2023-07-13T05:51:22;20.10;89.30
37285;DHT22;23172;53.550;9.964;2023-07-13T05:56:25;20.20;89.60
37285;DHT22;23172;53.550;9.964;2023-07-13T06:01:27;20.20;89.80
37285;DHT22;23172;53.550;9.964;2023-07-13T06:06:29;20.30;89.70
37285;DHT22;23172;53.550;9.964;2023-07-13T06:11:32;20.30;89.60
37285;DHT22;23172;53.550;9.964;2023-07-13T06:16:35;20.30;89.60
37285;DHT22;23172;53.550;9.964;2023-07-13T06:21:37;20.30;89.70
37285;DHT22;23172;53.550;9.964;2023-07-13T06:26:40;20.30;89.50
37285;DHT22;23172;53.550;9.964;2023-07-13T06:31:42;20.40;89.40
37285;DHT22;23172;53.550;9.964;2023-07-13T06:36:45;20.40;89.40
37285;DHT22;23172;53.550;9.964;2023-07-13T06:41:48;20.50;89.10
37285;DHT22;23172;53.550;9.964;2023-07-13T06:46:50;20.70;88.80
37285;DHT22;23172;53.550;9.964;2023-07-13T06:51:52;20.80;88.30
37285;DHT22;23172;53.550;9.964;2023-07-13T06:56:55;20.80;88.20
37285;DHT22;23172;53.550;9.964;2023-07-13T07:01:57;21.00;88.00
37285;DHT22;23172;53.550;9.964;2023-07-13T07:06:59;21.00;87.80
37285;DHT22;23172;53.550;9.964;2023-07-13T07:12:02;21.10;87.60
37285;DHT22;23172;53.550;9.964;2023-07-13T07:17:04;21.20;87.10
37285;DHT22;23172;53.550;9.964;2023-07-13T07:22:06;21.30;86.60
37285;DHT22;23172;53.550;9.964;2023-07-13T07:27:09;21.30;86.30
37285;DHT22;23172;53.550;9.964;2023-07-13T07:32:11;21.30;86.20
37285;DHT22;23172;53.550;9.964;2023-07-13T07:37:14;21.20;87.20
37285;DHT22;23172;53.550;9.964;2023-07-13T07:42:17;21.30;86.70
37285;DHT22;23172;53.550;9.964;2023-07-13T07:47:19;21.50;86.10
37285;DHT22;23172;53.550;9.964;2023-07-13T07:52:21;21.70;85.30
37285;DHT22;23172;53.550;9.964;2023-07-13T07:57:24;21.80;84.70
37285;DHT22;23172;53.550;9.964;2023-07-13T08:02:26;22.00;83.50
37285;DHT22;23172;53.550;9.964;2023-07-13T08:07:30;22.50;81.70
37285;DHT22;23172;53.550;9.964;2023-07-13T08:12:35;23.70;79.10
37285;DHT22;23172;53.550;9.964;2023-07-13T08:17:37;24.30;73.30
37285;DHT22;23172;53.550;9.964;2023-07-13T08:22:39;24.70;71.50
37285;DHT22;23172;53.550;9.964;2023-07-13T08:27:42;25.30;68.70
37285;DHT22;23172;53.550;9.964;2023-07-13T08:32:44;26.20;66.50
37285;DHT22;23172;53.550;9.964;2023-07-13T08:37:46;26.70;62.40
37285;DHT22;23172;53.550;9.964;2023-07-13T08:42:54;26.20;61.30
37285;DHT22;23172;53.550;9.964;2023-07-13T08:48:02;25.90;61.10
37285;DHT22;23172;53.550;9.964;2023-07-13T08:53:06;26.10;60.60
37285;DHT22;23172;53.550;9.964;2023-07-13T08:58:12;26.10;60.10
37285;DHT22;23172;53.550;9.964;2023-07-13T09:03:20;27.40;59.50
37285;DHT22;23172;53.550;9.964;2023-07-13T09:08:27;29.00;56.60
37285;DHT22;23172;53.550;9.964;2023-07-13T09:13:33;30.30;52.40
37285;DHT22;23172;53.550;9.964;2023-07-13T09:18:43;30.30;51.20
37285;DHT22;23172;53.550;9.964;2023-07-13T09:23:45;31.40;50.90
37285;DHT22;23172;53.550;9.964;2023-07-13T09:28:53;32.20;49.40
37285;DHT22;23172;53.550;9.964;2023-07-13T09:33:57;33.10;46.60
37285;DHT22;23172;53.550;9.964;2023-07-13T09:39:03;32.80;45.50
37285;DHT22;23172;53.550;9.964;2023-07-13T09:44:10;34.20;43.10
37285;DHT22;23172;53.550;9.964;2023-07-13T09:49:13;34.90;41.10
37285;DHT22;23172;53.550;9.964;2023-07-13T09:54:19;35.30;40.60
37285;DHT22;23172;53.550;9.964;2023-07-13T09:59:26;37.70;37.80
37285;DHT22;23172;53.550;9.964;2023-07-13T10:04:31;37.50;36.50
37285;DHT22;23172;53.550;9.964;2023-07-13T10:09:33;36.20;36.10
37285;DHT22;23172;53.550;9.964;2023-07-13T10:14:37;34.20;37.30
37285;DHT22;23172;53.550;9.964;2023-07-13T10:19:41;33.20;39.20
37285;DHT22;23172;53.550;9.964;2023-07-13T10:24:45;36.00;37.40
37285;DHT22;23172;53.550;9.964;2023-07-13T10:29:52;36.20;34.90
37285;DHT22;23172;53.550;9.964;2023-07-13T10:34:55;34.10;36.20
37285;DHT22;23172;53.550;9.964;2023-07-13T10:40:00;34.00;37.30
37285;DHT22;23172;53.550;9.964;2023-07-13T10:45:13;36.30;34.00
37285;DHT22;23172;53.550;9.964;2023-07-13T10:50:19;35.40;35.40
37285;DHT22;23172;53.550;9.964;2023-07-13T10:55:32;37.40;33.90
37285;DHT22;23172;53.550;9.964;2023-07-13T11:00:43;39.00;31.20
37285;DHT22;23172;53.550;9.964;2023-07-13T11:06:03;41.20;29.40
37285;DHT22;23172;53.550;9.964;2023-07-13T11:11:31;42.40;28.20
37285;DHT22;23172;53.550;9.964;2023-07-13T11:16:45;44.30;26.40
37285;DHT22;23172;53.550;9.964;2023-07-13T11:22:03;45.40;26.30
37285;DHT22;23172;53.550;9.964;2023-07-13T11:27:22;43.80;25.40
37285;DHT22;23172;53.550;9.964;2023-07-13T11:32:30;45.30;24.40
37285;DHT22;23172;53.550;9.964;2023-07-13T11:37:32;44.00;24.60
37285;DHT22;23172;53.550;9.964;2023-07-13T11:42:35;44.70;24.60
37285;DHT22;23172;53.550;9.964;2023-07-13T11:47:42;43.30;24.50
37285;DHT22;23172;53.550;9.964;2023-07-13T11:52:44;39.90;26.40
37285;DHT22;23172;53.550;9.964;2023-07-13T11:57:50;40.20;26.50
37285;DHT22;23172;53.550;9.964;2023-07-13T12:02:56;39.10;26.90
37285;DHT22;23172;53.550;9.964;2023-07-13T12:07:59;37.10;28.40
37285;DHT22;23172;53.550;9.964;2023-07-13T12:13:09;35.00;29.80
37285;DHT22;23172;53.550;9.964;2023-07-13T12:18:17;33.40;31.60
37285;DHT22;23172;53.550;9.964;2023-07-13T12:23:23;31.80;34.70
37285;DHT22;23172;53.550;9.964;2023-07-13T12:28:32;30.10;39.80
37285;DHT22;23172;53.550;9.964;2023-07-13T12:33:35;28.40;45.90
37285;DHT22;23172;53.550;9.964;2023-07-13T12:38:45;27.40;47.90
37285;DHT22;23172;53.550;9.964;2023-07-13T12:43:48;27.20;50.30
37285;DHT22;23172;53.550;9.964;2023-07-13T12:48:52;27.70;50.30
37285;DHT22;23172;53.550;9.964;2023-07-13T12:53:59;28.00;49.60
37285;DHT22;23172;53.550;9.964;2023-07-13T12:59:15;27.80;49.60
37285;DHT22;23172;53.550;9.964;2023-07-13T13:04:20;27.10;50.70
37285;DHT22;23172;53.550;9.964;2023-07-13T13:09:22;26.60;51.40
37285;DHT22;23172;53.550;9.964;2023-07-13T13:14:24;26.10;52.00
37285;DHT22;23172;53.550;9.964;2023-07-13T13:19:28;25.70;52.80
37285;DHT22;23172;53.550;9.964;2023-07-13T13:24:31;25.60;53.60
37285;DHT22;23172;53.550;9.964;2023-07-13T13:29:36;25.80;53.50
37285;DHT22;23172;53.550;9.964;2023-07-13T13:34:41;26.30;52.90
37285;DHT22;23172;53.550;9.964;2023-07-13T13:39:44;26.40;53.10
37285;DHT22;23172;53.550;9.964;2023-07-13T13:44:46;26.30;53.00
37285;DHT22;23172;53.550;9.964;2023-07-13T13:49:49;26.20;53.00
37285;DHT22;23172;53.550;9.964;2023-07-13T13:54:51;26.10;52.80
37285;DHT22;23172;53.550;9.964;2023-07-13T13:59:56;26.10;52.30
37285;DHT22;23172;53.550;9.964;2023-07-13T14:05:01;26.10;52.00
37285;DHT22;23172;53.550;9.964;2023-07-13T14:10:11;25.90;51.90
37285;DHT22;23172;53.550;9.964;2023-07-13T14:15:20;25.90;52.40
37285;DHT22;23172;53.550;9.964;2023-07-13T14:20:24;26.30;52.20
37285;DHT22;23172;53.550;9.964;2023-07-13T14:25:27;26.30;51.40
37285;DHT22;23172;53.550;9.964;2023-07-13T14:30:29;26.10;51.30
37285;DHT22;23172;53.550;9.964;2023-07-13T14:35:32;26.10;51.40
37285;DHT22;23172;53.550;9.964;2023-07-13T14:40:34;26.10;51.60
37285;DHT22;23172;53.550;9.964;2023-07-13T14:45:39;26.40;51.70
37285;DHT22;23172;53.550;9.964;2023-07-13T14:50:43;26.50;51.20
37285;DHT22;23172;53.550;9.964;2023-07-13T14:55:46;26.30;51.20
37285;DHT22;23172;53.550;9.964;2023-07-13T15:00:47;26.10;52.00
37285;DHT22;23172;53.550;9.964;2023-07-13T15:05:52;25.80;53.00
37285;DHT22;23172;53.550;9.964;2023-07-13T15:10:54;25.70;53.40
37285;DHT22;23172;53.550;9.964;2023-07-13T15:15:58;25.80;53.70
37285;DHT22;23172;53.550;9.964;2023-07-13T15:21:01;26.20;53.80
37285;DHT22;23172;53.550;9.964;2023-07-13T15:26:04;25.90;53.60
37285;DHT22;23172;53.550;9.964;2023-07-13T15:31:19;25.60;53.90
37285;DHT22;23172;53.550;9.964;2023-07-13T15:36:24;25.40;53.80
37285;DHT22;23172;53.550;9.964;2023-07-13T15:41:28;25.30;53.50
37285;DHT22;23172;53.550;9.964;2023-07-13T15:46:30;25.20;53.70
37285;DHT22;23172;53.550;9.964;2023-07-13T15:51:34;25.20;53.70
37285;DHT22;23172;53.550;9.964;2023-07-13T15:56:37;25.20;54.00
37285;DHT22;23172;53.550;9.964;2023-07-13T16:01:41;25.20;53.80
37285;DHT22;23172;53.550;9.964;2023-07-13T16:06:44;25.20;53.50
37285;DHT22;23172;53.550;9.964;2023-07-13T16:11:46;25.10;54.00
37285;DHT22;23172;53.550;9.964;2023-07-13T16:16:49;25.10;52.90
37285;DHT22;23172;53.550;9.964;2023-07-13T16:21:52;24.90;52.90
37285;DHT22;23172;53.550;9.964;2023-07-13T16:26:54;24.70;53.50
37285;DHT22;23172;53.550;9.964;2023-07-13T16:31:59;24.60;53.50
37285;DHT22;23172;53.550;9.964;2023-07-13T16:37:10;24.50;53.80
37285;DHT22;23172;53.550;9.964;2023-07-13T16:42:13;24.40;54.60
37285;DHT22;23172;53.550;9.964;2023-07-13T16:47:16;24.30;55.40
37285;DHT22;23172;53.550;9.964;2023-07-13T16:52:20;24.20;55.60
37285;DHT22;23172;53.550;9.964;2023-07-13T16:57:23;24.10;55.80
37285;DHT22;23172;53.550;9.964;2023-07-13T17:02:32;24.00;55.90
37285;DHT22;23172;53.550;9.964;2023-07-13T17:07:36;23.90;55.90
37285;DHT22;23172;53.550;9.964;2023-07-13T17:12:38;23.90;56.20
37285;DHT22;23172;53.550;9.964;2023-07-13T17:17:40;23.80;56.20
37285;DHT22;23172;53.550;9.964;2023-07-13T17:22:45;23.80;56.30
37285;DHT22;23172;53.550;9.964;2023-07-13T17:27:47;23.80;56.40
37285;DHT22;23172;53.550;9.964;2023-07-13T17:32:50;23.80;56.50
37285;DHT22;23172;53.550;9.964;2023-07-13T17:37:56;23.70;56.80
37285;DHT22;23172;53.550;9.964;2023-07-13T17:42:58;23.50;57.00
37285;DHT22;23172;53.550;9.964;2023-07-13T17:48:00;23.40;57.20
37285;DHT22;23172;53.550;9.964;2023-07-13T17:53:13;23.30;57.60
37285;DHT22;23172;53.550;9.964;2023-07-13T17:58:15;23.20;57.80
37285;DHT22;23172;53.550;9.964;2023-07-13T18:03:21;23.00;57.70
37285;DHT22;23172;53.550;9.964;2023-07-13T18:08:28;23.00;57.60
37285;DHT22;23172;53.550;9.964;2023-07-13T18:13:30;22.90;57.40
37285;DHT22;23172;53.550;9.964;2023-07-13T18:18:39;22.90;57.60
37285;DHT22;23172;53.550;9.964;2023-07-13T18:23:42;22.90;57.90
37285;DHT22;23172;53.550;9.964;2023-07-13T18:28:45;22.90;58.00
37285;DHT22;23172;53.550;9.964;2023-07-13T18:33:50;22.80;58.90
37285;DHT22;23172;53.550;9.964;2023-07-13T18:38:54;22.80;58.70
37285;DHT22;23172;53.550;9.964;2023-07-13T18:43:56;22.80;59.20
37285;DHT22;23172;53.550;9.964;2023-07-13T18:48:58;22.80;59.50
37285;DHT22;23172;53.550;9.964;2023-07-13T18:54:02;22.70;59.50
37285;DHT22;23172;53.550;9.964;2023-07-13T18:59:04;22.70;60.10
37285;DHT22;23172;53.550;9.964;2023-07-13T19:04:26;22.60;61.40
37285;DHT22;23172;53.550;9.964;2023-07-13T22:52:11;22.30;66.70
37285;DHT22;23172;53.550;9.964;2023-07-13T22:57:14;19.80;92.00
37285;DHT22;23172;53.550;9.964;2023-07-13T23:02:17;19.70;92.10
37285;DHT22;23172;53.550;9.964;2023-07-13T23:07:19;19.80;92.20
37285;DHT22;23172;53.550;9.964;2023-07-13T23:12:25;19.70;92.30
